Time;durP1;ratioP1;P1;durP2;ratioP2;P2;SDS_P1;SDS_P2;PMS_P1;PMS_P2;Temp;Humidity;BMP_temperature;BMP_pressure;BME280_temperature;BME280_humidity;BME280_pressure;Samples;Min_cycle;Max_cycle;Signal;HPM_P1;HPM_P2
2021/09/24 00:02:02;;;;;;;16.35;5.93;;;;;;;;;;5049217;28;20041;-66
2021/09/24 00:04:30;;;;;;;13.32;6.32;;;;;;;;;;5045572;28;20029;-66
2021/09/24 00:06:55;;;;;;;10.50;5.45;;;;;;;;;;5053125;28;20074;-65
2021/09/24 00:09:20;;;;;;;17.45;6.60;;;;;;;;;;5052691;28;20013;-66
2021/09/24 00:11:45;;;;;;;17.27;7.10;;;;;;;;;;5050619;28;20025;-65
2021/09/24 00:14:11;;;;;;;19.25;7.40;;;;;;;;;;5051759;28;20096;-66
2021/09/24 00:16:36;;;;;;;13.45;6.72;;;;;;;;;;5052057;28;20432;-65
2021/09/24 00:19:01;;;;;;;20.67;6.30;;;;;;;;;;5049474;28;20462;-66
2021/09/24 00:21:27;;;;;;;14.45;6.75;;;;;;;;;;5051881;28;20025;-65
2021/09/24 00:23:52;;;;;;;11.70;5.77;;;;;;;;;;5053407;28;20025;-64
2021/09/24 00:26:17;;;;;;;18.10;7.50;;;;;;;;;;5053423;28;20718;-65
2021/09/24 00:28:42;;;;;;;28.17;7.03;;;;;;;;;;5053187;28;20267;-65
2021/09/24 00:31:07;;;;;;;12.95;6.32;;;;;;;;;;5053650;28;20257;-64
2021/09/24 00:33:32;;;;;;;12.47;5.80;;;;;;;;;;5053228;28;20021;-65
2021/09/24 00:35:58;;;;;;;14.13;5.67;;;;;;;;;;5053822;28;20260;-66
2021/09/24 00:38:23;;;;;;;11.10;5.37;;;;;;;;;;5053152;28;20255;-66
2021/09/24 00:40:49;;;;;;;16.17;6.05;;;;;;;;;;5053238;28;20095;-66
2021/09/24 00:43:14;;;;;;;19.77;6.50;;;;;;;;;;5053283;28;20021;-64
2021/09/24 00:45:40;;;;;;;13.63;5.85;;;;;;;;;;5052483;28;20029;-67
2021/09/24 00:48:05;;;;;;;15.25;5.22;;;;;;;;;;5052905;28;20025;-65
2021/09/24 00:50:30;;;;;;;14.55;5.32;;;;;;;;;;5052499;28;20013;-64
2021/09/24 00:52:56;;;;;;;21.67;6.15;;;;;;;;;;5050308;28;20021;-66
2021/09/24 00:55:21;;;;;;;14.40;5.60;;;;;;;;;;5052456;28;20055;-66
2021/09/24 00:57:47;;;;;;;17.30;5.97;;;;;;;;;;5052126;28;20417;-66
2021/09/24 01:00:13;;;;;;;22.27;6.00;;;;;;;;;;5052460;28;20109;-64
2021/09/24 01:02:38;;;;;;;14.88;5.85;;;;;;;;;;5051953;28;20025;-65
2021/09/24 01:05:04;;;;;;;17.37;5.93;;;;;;;;;;5052727;28;20485;-66
2021/09/24 01:07:29;;;;;;;12.40;5.20;;;;;;;;;;5051769;28;20259;-64
2021/09/24 01:09:55;;;;;;;14.93;5.35;;;;;;;;;;5052166;28;20411;-66
2021/09/24 01:12:20;;;;;;;20.10;5.30;;;;;;;;;;5051732;28;20044;-66
2021/09/24 01:14:56;;;;;;;16.75;6.45;;;;;;;;;;5051687;28;20021;-65
2021/09/24 01:17:21;;;;;;;12.32;5.28;;;;;;;;;;5050644;28;20100;-65
2021/09/24 01:19:46;;;;;;;15.83;5.70;;;;;;;;;;5051390;28;20036;-67
2021/09/24 01:22:11;;;;;;;14.53;5.43;;;;;;;;;;5050906;28;20096;-66
2021/09/24 01:24:36;;;;;;;17.20;5.63;;;;;;;;;;5048935;28;20271;-66
2021/09/24 01:27:01;;;;;;;13.77;5.27;;;;;;;;;;5051455;28;20283;-67
2021/09/24 01:29:27;;;;;;;14.32;5.38;;;;;;;;;;5051764;28;20632;-67
2021/09/24 01:31:52;;;;;;;13.75;5.15;;;;;;;;;;5051490;28;20027;-66
2021/09/24 01:34:17;;;;;;;17.23;5.13;;;;;;;;;;5051257;28;20024;-66
2021/09/24 01:36:43;;;;;;;10.50;5.07;;;;;;;;;;5050939;28;20029;-66
2021/09/24 01:39:09;;;;;;;14.23;5.10;;;;;;;;;;5051955;28;20307;-67
2021/09/24 01:41:40;;;;;;;10.35;6.28;;;;;;;;;;5051181;28;20268;-67
2021/09/24 01:44:05;;;;;;;13.40;5.00;;;;;;;;;;5050714;28;20039;-67
2021/09/24 01:46:30;;;;;;;15.57;5.27;;;;;;;;;;5050484;28;20028;-65
2021/09/24 01:48:56;;;;;;;15.45;4.97;;;;;;;;;;5051015;28;20275;-66
2021/09/24 01:51:21;;;;;;;12.20;6.43;;;;;;;;;;5051280;28;20033;-66
2021/09/24 01:53:48;;;;;;;17.67;6.43;;;;;;;;;;5050545;28;20045;-67
2021/09/24 01:56:13;;;;;;;16.00;7.35;;;;;;;;;;5050252;28;20299;-66
2021/09/24 01:58:38;;;;;;;20.15;8.00;;;;;;;;;;5050443;28;20401;-65
2021/09/24 02:01:03;;;;;;;19.93;7.17;;;;;;;;;;5050742;28;20504;-66
2021/09/24 02:03:29;;;;;;;24.13;8.27;;;;;;;;;;5050141;28;20267;-65
2021/09/24 02:05:54;;;;;;;21.48;7.57;;;;;;;;;;5049319;28;20020;-66
2021/09/24 02:08:19;;;;;;;26.33;8.90;;;;;;;;;;5050544;28;20028;-65
2021/09/24 02:10:44;;;;;;;29.70;8.87;;;;;;;;;;5051853;28;20268;-66
2021/09/24 02:13:09;;;;;;;27.90;10.20;;;;;;;;;;5051647;28;20662;-65
2021/09/24 02:15:35;;;;;;;23.48;10.25;;;;;;;;;;5051387;28;20276;-67
2021/09/24 02:18:00;;;;;;;19.67;9.45;;;;;;;;;;5051652;28;20033;-65
2021/09/24 02:20:25;;;;;;;18.53;8.90;;;;;;;;;;5050081;28;20131;-67
2021/09/24 02:22:51;;;;;;;27.23;10.30;;;;;;;;;;5050783;28;20268;-67
2021/09/24 02:25:16;;;;;;;17.83;10.23;;;;;;;;;;5050671;28;20621;-66
2021/09/24 02:27:41;;;;;;;21.27;10.13;;;;;;;;;;5051171;28;20032;-66
2021/09/24 02:30:07;;;;;;;22.07;10.13;;;;;;;;;;5051418;28;20266;-66
2021/09/24 02:32:32;;;;;;;24.02;12.75;;;;;;;;;;5051099;28;20740;-67
2021/09/24 02:34:57;;;;;;;27.77;10.53;;;;;;;;;;5050299;28;20596;-67
2021/09/24 02:37:22;;;;;;;30.80;12.83;;;;;;;;;;5050204;28;20271;-65
2021/09/24 02:39:47;;;;;;;41.93;15.43;;;;;;;;;;5051277;28;20255;-66
2021/09/24 02:42:12;;;;;;;42.70;15.27;;;;;;;;;;5050920;28;20620;-66
2021/09/24 02:44:38;;;;;;;31.30;13.47;;;;;;;;;;5050695;28;20332;-67
2021/09/24 02:47:03;;;;;;;34.33;14.23;;;;;;;;;;5050960;28;20290;-66
2021/09/24 02:49:28;;;;;;;31.52;13.98;;;;;;;;;;5049807;28;20766;-66
2021/09/24 02:51:53;;;;;;;34.37;15.10;;;;;;;;;;5049141;28;20032;-66
2021/09/24 02:54:19;;;;;;;41.63;16.83;;;;;;;;;;5048361;28;20345;-67
2021/09/24 02:56:44;;;;;;;34.05;15.00;;;;;;;;;;5049686;28;20267;-66
2021/09/24 02:59:09;;;;;;;34.93;16.27;;;;;;;;;;5049525;28;20024;-65
2021/09/24 03:01:34;;;;;;;38.83;17.48;;;;;;;;;;5049958;28;20266;-66
2021/09/24 03:04:00;;;;;;;39.75;16.27;;;;;;;;;;5050264;28;20096;-66
2021/09/24 03:06:25;;;;;;;36.65;16.45;;;;;;;;;;5050473;28;20021;-66
2021/09/24 03:08:50;;;;;;;41.00;16.70;;;;;;;;;;5049345;28;20029;-65
2021/09/24 03:11:15;;;;;;;32.63;15.27;;;;;;;;;;5050063;28;20674;-65
2021/09/24 03:13:40;;;;;;;34.33;17.13;;;;;;;;;;5048604;28;20278;-65
2021/09/24 03:16:06;;;;;;;34.03;16.43;;;;;;;;;;5049205;28;20017;-66
2021/09/24 03:18:31;;;;;;;39.13;16.60;;;;;;;;;;5048602;28;20825;-65
2021/09/24 03:20:56;;;;;;;34.07;15.17;;;;;;;;;;5049267;28;20028;-67
2021/09/24 03:23:21;;;;;;;31.60;15.65;;;;;;;;;;5048969;28;20295;-65
2021/09/24 03:25:47;;;;;;;38.67;16.52;;;;;;;;;;5049165;28;20501;-67
2021/09/24 03:28:12;;;;;;;38.95;17.55;;;;;;;;;;5049271;28;20017;-67
2021/09/24 03:30:38;;;;;;;45.10;18.63;;;;;;;;;;5048804;28;20037;-65
2021/09/24 03:33:03;;;;;;;35.72;15.35;;;;;;;;;;5049551;28;20034;-67
2021/09/24 03:35:28;;;;;;;38.65;16.85;;;;;;;;;;5048934;28;20174;-66
2021/09/24 03:37:53;;;;;;;29.98;15.63;;;;;;;;;;5048350;28;20028;-67
2021/09/24 03:40:18;;;;;;;37.50;16.10;;;;;;;;;;5049293;28;20036;-65
2021/09/24 03:42:44;;;;;;;36.80;17.00;;;;;;;;;;5048622;28;20282;-66
2021/09/24 03:45:09;;;;;;;47.97;22.57;;;;;;;;;;5049191;28;20295;-66
2021/09/24 03:47:35;;;;;;;60.03;24.38;;;;;;;;;;5049952;28;20263;-65
2021/09/24 03:50:00;;;;;;;45.33;21.38;;;;;;;;;;5050120;28;20021;-66
2021/09/24 03:52:25;;;;;;;45.83;20.20;;;;;;;;;;5049906;28;20021;-66
2021/09/24 03:54:50;;;;;;;50.23;21.77;;;;;;;;;;5049455;28;20032;-66
2021/09/24 03:57:16;;;;;;;62.15;25.75;;;;;;;;;;5049783;28;20626;-66
2021/09/24 03:59:41;;;;;;;64.13;29.73;;;;;;;;;;5049379;28;20048;-66
2021/09/24 04:02:06;;;;;;;71.40;26.70;;;;;;;;;;5048835;28;20021;-67
2021/09/24 04:04:31;;;;;;;69.40;26.37;;;;;;;;;;5049913;28;20739;-66
2021/09/24 04:06:56;;;;;;;57.13;26.75;;;;;;;;;;5049349;28;20291;-66
2021/09/24 04:09:21;;;;;;;55.03;24.57;;;;;;;;;;5050125;28;20024;-65
2021/09/24 04:11:47;;;;;;;55.73;25.20;;;;;;;;;;5049992;28;20333;-65
2021/09/24 04:14:12;;;;;;;57.47;24.63;;;;;;;;;;5049610;28;20755;-66
2021/09/24 04:16:37;;;;;;;57.83;23.97;;;;;;;;;;5048833;28;20263;-65
2021/09/24 04:19:02;;;;;;;51.30;26.07;;;;;;;;;;5048441;28;20695;-65
2021/09/24 04:21:28;;;;;;;52.22;23.92;;;;;;;;;;5048837;28;20282;-64
2021/09/24 04:23:53;;;;;;;56.83;24.75;;;;;;;;;;5048024;28;20481;-65
2021/09/24 04:26:18;;;;;;;52.15;23.35;;;;;;;;;;5048011;28;20033;-67
2021/09/24 04:28:43;;;;;;;59.00;23.80;;;;;;;;;;5049392;28;20557;-64
2021/09/24 04:31:09;;;;;;;42.08;22.52;;;;;;;;;;5049827;28;20464;-65
2021/09/24 04:33:34;;;;;;;52.53;24.92;;;;;;;;;;5049209;28;20516;-64
2021/09/24 04:35:59;;;;;;;53.47;25.17;;;;;;;;;;5049506;28;20512;-65
2021/09/24 04:38:24;;;;;;;64.53;30.08;;;;;;;;;;5049244;28;20260;-65
2021/09/24 04:40:49;;;;;;;61.95;28.25;;;;;;;;;;5048084;28;20021;-64
2021/09/24 04:43:15;;;;;;;61.33;27.97;;;;;;;;;;5049367;28;20025;-66
2021/09/24 04:45:40;;;;;;;54.47;27.73;;;;;;;;;;5053082;28;20421;-64
2021/09/24 04:48:05;;;;;;;54.20;27.75;;;;;;;;;;5053219;28;20688;-66
2021/09/24 04:50:31;;;;;;;57.83;28.10;;;;;;;;;;5053264;28;20091;-64
2021/09/24 04:52:56;;;;;;;59.10;28.83;;;;;;;;;;5052966;28;20032;-64
2021/09/24 04:55:21;;;;;;;53.25;26.48;;;;;;;;;;5052316;28;20468;-68
2021/09/24 04:57:46;;;;;;;51.43;25.70;;;;;;;;;;5052457;28;20052;-64
2021/09/24 05:00:12;;;;;;;58.87;26.87;;;;;;;;;;5053148;28;20271;-65
2021/09/24 05:02:38;;;;;;;52.13;25.98;;;;;;;;;;5052529;28;20267;-66
2021/09/24 05:05:03;;;;;;;60.60;27.05;;;;;;;;;;5052414;28;20033;-67
2021/09/24 05:07:28;;;;;;;66.47;29.73;;;;;;;;;;5052702;28;20029;-66
2021/09/24 05:09:54;;;;;;;68.63;29.20;;;;;;;;;;5052683;28;20509;-65
2021/09/24 05:12:19;;;;;;;58.17;26.87;;;;;;;;;;5052379;28;20271;-66
2021/09/24 05:14:44;;;;;;;64.70;28.40;;;;;;;;;;5052215;28;20663;-66
2021/09/24 05:17:09;;;;;;;60.10;28.10;;;;;;;;;;5052570;28;20271;-66
2021/09/24 05:19:35;;;;;;;58.73;27.80;;;;;;;;;;5052440;28;20032;-66
2021/09/24 05:22:00;;;;;;;54.05;27.50;;;;;;;;;;5052472;28;20755;-67
2021/09/24 05:24:25;;;;;;;49.38;27.05;;;;;;;;;;5052059;28;20056;-67
2021/09/24 05:26:50;;;;;;;51.45;26.02;;;;;;;;;;5051893;28;20121;-66
2021/09/24 05:29:16;;;;;;;53.13;25.88;;;;;;;;;;5052242;28;20021;-66
2021/09/24 05:31:41;;;;;;;57.55;25.35;;;;;;;;;;5050665;28;20037;-66
2021/09/24 05:34:06;;;;;;;56.10;23.08;;;;;;;;;;5038153;28;20018;-66
2021/09/24 05:36:31;;;;;;;47.93;23.23;;;;;;;;;;5050287;28;20074;-67
2021/09/24 05:38:57;;;;;;;50.55;24.23;;;;;;;;;;5050631;28;20593;-63
2021/09/24 05:41:22;;;;;;;45.47;25.02;;;;;;;;;;5052031;28;20037;-66
2021/09/24 05:43:49;;;;;;;42.25;23.33;;;;;;;;;;5050022;28;20031;-65
2021/09/24 05:46:15;;;;;;;50.65;22.55;;;;;;;;;;5050063;28;20666;-66
2021/09/24 05:48:40;;;;;;;42.95;22.23;;;;;;;;;;5049436;28;20029;-66
2021/09/24 05:51:05;;;;;;;45.00;22.07;;;;;;;;;;5050220;28;20024;-65
2021/09/24 05:53:30;;;;;;;47.80;22.42;;;;;;;;;;5039856;28;20284;-66
2021/09/24 05:55:56;;;;;;;43.50;23.10;;;;;;;;;;5049629;28;20132;-65
2021/09/24 05:58:21;;;;;;;44.40;22.40;;;;;;;;;;5050212;28;20631;-66
2021/09/24 06:00:46;;;;;;;46.80;22.08;;;;;;;;;;5048890;28;20087;-65
2021/09/24 06:03:11;;;;;;;41.90;19.97;;;;;;;;;;5047792;28;20073;-66
2021/09/24 06:05:36;;;;;;;42.10;20.33;;;;;;;;;;5047453;28;20874;-65
2021/09/24 06:08:01;;;;;;;38.00;20.70;;;;;;;;;;5043981;28;20305;-66
2021/09/24 06:10:27;;;;;;;34.60;19.13;;;;;;;;;;5049436;28;20028;-65
2021/09/24 06:12:52;;;;;;;50.00;21.07;;;;;;;;;;5048009;28;20027;-65
2021/09/24 06:15:18;;;;;;;34.95;20.73;;;;;;;;;;5049703;28;20263;-66
2021/09/24 06:17:43;;;;;;;45.10;24.83;;;;;;;;;;5040600;28;20079;-65
2021/09/24 06:20:09;;;;;;;34.20;20.52;;;;;;;;;;5045320;28;20489;-66
2021/09/24 06:22:34;;;;;;;34.88;20.75;;;;;;;;;;5043826;28;20432;-65
2021/09/24 06:24:59;;;;;;;42.10;21.00;;;;;;;;;;5041854;28;20022;-66
2021/09/24 06:27:25;;;;;;;49.70;20.15;;;;;;;;;;5047693;28;20425;-66
2021/09/24 06:29:52;;;;;;;41.55;21.13;;;;;;;;;;5051096;28;20029;-65
2021/09/24 06:32:17;;;;;;;34.88;20.05;;;;;;;;;;5051186;28;20087;-66
2021/09/24 06:34:44;;;;;;;36.95;19.45;;;;;;;;;;5050776;28;20108;-64
2021/09/24 06:37:10;;;;;;;40.90;20.25;;;;;;;;;;5050823;28;20025;-65
2021/09/24 06:39:35;;;;;;;39.88;18.60;;;;;;;;;;5051117;28;20032;-65
2021/09/24 06:42:00;;;;;;;39.35;18.17;;;;;;;;;;5051060;28;20025;-67
2021/09/24 06:44:25;;;;;;;30.05;18.17;;;;;;;;;;5050399;28;20111;-65
2021/09/24 06:46:50;;;;;;;31.63;18.73;;;;;;;;;;5050114;28;20547;-66
2021/09/24 06:49:16;;;;;;;39.63;19.10;;;;;;;;;;5050364;28;20053;-64
2021/09/24 06:51:41;;;;;;;33.80;18.55;;;;;;;;;;5048377;28;20098;-66
2021/09/24 06:54:08;;;;;;;35.17;17.17;;;;;;;;;;5047235;28;20508;-65
2021/09/24 06:56:33;;;;;;;34.63;18.70;;;;;;;;;;5051269;28;20263;-65
2021/09/24 06:59:00;;;;;;;36.17;19.88;;;;;;;;;;5050237;28;20044;-65
2021/09/24 07:01:26;;;;;;;41.53;19.20;;;;;;;;;;5050617;28;20027;-66
2021/09/24 07:03:51;;;;;;;38.55;19.30;;;;;;;;;;5050414;28;20468;-66
2021/09/24 07:06:17;;;;;;;39.80;23.00;;;;;;;;;;5049888;28;20025;-65
2021/09/24 07:08:42;;;;;;;47.08;22.70;;;;;;;;;;5050398;28;20264;-65
2021/09/24 07:11:08;;;;;;;39.70;21.13;;;;;;;;;;5050206;28;20024;-66
2021/09/24 07:13:33;;;;;;;44.75;21.13;;;;;;;;;;5050050;28;20020;-65
2021/09/24 07:15:59;;;;;;;43.97;21.85;;;;;;;;;;5050301;28;20374;-65
2021/09/24 07:18:24;;;;;;;36.53;20.73;;;;;;;;;;5051001;28;20028;-65
2021/09/24 07:20:49;;;;;;;42.60;19.90;;;;;;;;;;5050111;28;20397;-65
2021/09/24 07:23:14;;;;;;;48.13;21.00;;;;;;;;;;5050587;28;20258;-64
2021/09/24 07:25:39;;;;;;;41.00;22.67;;;;;;;;;;5049685;28;20283;-65
2021/09/24 07:28:05;;;;;;;38.42;22.80;;;;;;;;;;5044221;28;20010;-66
2021/09/24 07:30:30;;;;;;;46.63;22.40;;;;;;;;;;5045554;28;20017;-64
2021/09/24 07:32:55;;;;;;;45.13;22.33;;;;;;;;;;5049619;28;20660;-66
2021/09/24 07:35:20;;;;;;;48.30;23.80;;;;;;;;;;5050164;28;20379;-67
2021/09/24 07:37:45;;;;;;;42.08;22.77;;;;;;;;;;5049898;28;20278;-66
2021/09/24 07:40:11;;;;;;;39.33;21.70;;;;;;;;;;5050252;28;20032;-66
2021/09/24 07:42:36;;;;;;;52.08;23.50;;;;;;;;;;5048232;28;20025;-67
2021/09/24 07:45:02;;;;;;;48.77;23.30;;;;;;;;;;5050082;28;20037;-66
2021/09/24 07:47:27;;;;;;;45.35;23.42;;;;;;;;;;5049890;28;20337;-66
2021/09/24 07:49:52;;;;;;;38.10;22.80;;;;;;;;;;5049271;28;20079;-67
2021/09/24 07:52:18;;;;;;;39.77;22.37;;;;;;;;;;5049428;28;20271;-65
2021/09/24 07:54:43;;;;;;;46.05;24.65;;;;;;;;;;5049816;28;20260;-67
2021/09/24 07:57:08;;;;;;;49.13;25.20;;;;;;;;;;5049342;28;20218;-66
2021/09/24 07:59:33;;;;;;;54.47;23.67;;;;;;;;;;5048566;28;20843;-67
2021/09/24 08:01:58;;;;;;;54.47;26.13;;;;;;;;;;5049456;28;20273;-67
2021/09/24 08:04:23;;;;;;;53.17;26.97;;;;;;;;;;5049635;28;20263;-67
2021/09/24 08:06:49;;;;;;;49.90;25.63;;;;;;;;;;5049338;28;20317;-67
2021/09/24 08:09:14;;;;;;;46.53;26.23;;;;;;;;;;5049497;28;20017;-67
2021/09/24 08:11:39;;;;;;;46.38;24.73;;;;;;;;;;5043831;28;20032;-66
2021/09/24 08:14:04;;;;;;;51.40;23.03;;;;;;;;;;5030043;28;20064;-66
2021/09/24 08:16:30;;;;;;;46.92;23.73;;;;;;;;;;5048755;28;20268;-67
2021/09/24 08:18:55;;;;;;;35.42;19.17;;;;;;;;;;5053371;28;20028;-66
2021/09/24 08:21:22;;;;;;;38.95;19.73;;;;;;;;;;5052328;28;20021;-67
2021/09/24 08:23:47;;;;;;;35.58;19.70;;;;;;;;;;5052999;28;20036;-65
2021/09/24 08:26:12;;;;;;;36.80;19.53;;;;;;;;;;5052873;28;20085;-66
2021/09/24 08:28:37;;;;;;;37.42;21.27;;;;;;;;;;5053227;28;20267;-65
2021/09/24 08:31:03;;;;;;;37.77;21.43;;;;;;;;;;5053351;28;20021;-66
2021/09/24 08:33:28;;;;;;;43.85;22.33;;;;;;;;;;5052936;28;20308;-65
2021/09/24 08:35:54;;;;;;;43.40;25.83;;;;;;;;;;5053027;28;20028;-65
2021/09/24 08:38:19;;;;;;;47.03;27.60;;;;;;;;;;5053550;28;20060;-66
2021/09/24 08:40:44;;;;;;;45.08;28.30;;;;;;;;;;5053327;28;20104;-64
2021/09/24 08:43:11;;;;;;;45.30;26.08;;;;;;;;;;5053179;28;20017;-65
2021/09/24 08:45:36;;;;;;;44.05;28.45;;;;;;;;;;5052823;28;20135;-65
2021/09/24 08:48:03;;;;;;;42.88;27.88;;;;;;;;;;5053225;28;20020;-64
2021/09/24 08:50:29;;;;;;;49.58;28.30;;;;;;;;;;5053417;28;20470;-65
2021/09/24 08:52:55;;;;;;;42.72;26.90;;;;;;;;;;5052686;28;20052;-65
2021/09/24 08:55:20;;;;;;;38.80;23.58;;;;;;;;;;5052887;28;20102;-65
2021/09/24 08:57:46;;;;;;;37.45;23.08;;;;;;;;;;5052528;28;20029;-64
2021/09/24 09:00:11;;;;;;;31.63;22.13;;;;;;;;;;5052926;28;20397;-65
2021/09/24 09:02:53;;;;;;;37.97;22.27;;;;;;;;;;5052439;28;20116;-65
2021/09/24 09:05:19;;;;;;;36.70;21.48;;;;;;;;;;5042967;28;20090;-64
2021/09/24 09:07:47;;;;;;;34.83;20.42;;;;;;;;;;5047397;28;20060;-65
2021/09/24 09:10:13;;;;;;;34.20;19.58;;;;;;;;;;5052651;28;20027;-65
2021/09/24 09:12:38;;;;;;;38.08;19.45;;;;;;;;;;5052354;28;20039;-65
2021/09/24 09:15:03;;;;;;;34.10;18.83;;;;;;;;;;5052607;28;20013;-65
2021/09/24 09:17:36;;;;;;;32.03;19.10;;;;;;;;;;5052052;28;20021;-66
2021/09/24 09:20:10;;;;;;;31.33;17.52;;;;;;;;;;5052831;28;20033;-65
2021/09/24 09:22:35;;;;;;;37.75;19.45;;;;;;;;;;5052233;28;20057;-66
2021/09/24 09:25:00;;;;;;;30.88;18.05;;;;;;;;;;5052967;28;20048;-66
2021/09/24 09:27:27;;;;;;;37.73;18.70;;;;;;;;;;5052263;28;20043;-65
2021/09/24 09:29:56;;;;;;;32.13;17.75;;;;;;;;;;5051472;28;20260;-65
2021/09/24 09:32:22;;;;;;;33.88;18.40;;;;;;;;;;5052118;28;20450;-67
2021/09/24 09:34:48;;;;;;;26.67;16.58;;;;;;;;;;5052511;28;20020;-65
2021/09/24 09:37:17;;;;;;;30.30;17.70;;;;;;;;;;5051454;28;20025;-67
2021/09/24 09:39:42;;;;;;;28.25;16.77;;;;;;;;;;5051643;28;20263;-66
2021/09/24 09:42:08;;;;;;;27.15;16.80;;;;;;;;;;5052230;28;20555;-67
2021/09/24 09:44:33;;;;;;;33.73;19.03;;;;;;;;;;5051777;28;20067;-67
2021/09/24 09:46:59;;;;;;;25.15;15.45;;;;;;;;;;5051492;28;20280;-65
2021/09/24 09:49:25;;;;;;;24.58;12.43;;;;;;;;;;5052088;28;20009;-67
2021/09/24 09:52:04;;;;;;;22.50;12.75;;;;;;;;;;5051377;28;20067;-67
2021/09/24 09:54:30;;;;;;;18.17;11.03;;;;;;;;;;5051383;28;20428;-67
2021/09/24 09:57:19;;;;;;;19.85;11.32;;;;;;;;;;5050757;28;20025;-67
2021/09/24 09:59:54;;;;;;;18.42;10.55;;;;;;;;;;5045354;28;20035;-65
2021/09/24 10:02:21;;;;;;;21.98;10.77;;;;;;;;;;5050301;28;20036;-65
2021/09/24 10:04:51;;;;;;;22.20;9.93;;;;;;;;;;5051318;28;20056;-65
2021/09/24 10:07:21;;;;;;;16.65;10.05;;;;;;;;;;5051018;28;20020;-67
2021/09/24 10:09:48;;;;;;;17.42;9.57;;;;;;;;;;5051461;28;20025;-64
2021/09/24 10:12:23;;;;;;;17.67;8.55;;;;;;;;;;5051035;28;20119;-66
2021/09/24 10:14:49;;;;;;;15.85;8.40;;;;;;;;;;5051843;28;20025;-65
2021/09/24 10:17:15;;;;;;;19.17;8.68;;;;;;;;;;5050974;28;20033;-66
2021/09/24 10:19:41;;;;;;;21.02;8.48;;;;;;;;;;5051644;28;20043;-66
2021/09/24 10:22:07;;;;;;;23.40;10.55;;;;;;;;;;5050558;28;20025;-67
2021/09/24 10:24:32;;;;;;;16.13;8.90;;;;;;;;;;5051716;28;20597;-66
2021/09/24 10:26:59;;;;;;;23.27;10.37;;;;;;;;;;5050891;28;20036;-67
2021/09/24 10:29:31;;;;;;;14.57;8.40;;;;;;;;;;5051565;28;20256;-66
2021/09/24 10:32:10;;;;;;;11.40;5.97;;;;;;;;;;5050595;28;20032;-66
2021/09/24 10:34:49;;;;;;;11.52;6.57;;;;;;;;;;5051566;28;20385;-66
2021/09/24 10:37:17;;;;;;;13.60;8.13;;;;;;;;;;5048552;28;20111;-66
2021/09/24 10:39:42;;;;;;;14.25;8.43;;;;;;;;;;5051241;28;20055;-64
2021/09/24 10:42:26;;;;;;;15.45;7.95;;;;;;;;;;5050035;28;20044;-66
2021/09/24 10:45:11;;;;;;;16.73;6.78;;;;;;;;;;5050914;28;20060;-65
2021/09/24 10:47:57;;;;;;;11.75;6.00;;;;;;;;;;5043094;28;20052;-65
2021/09/24 10:50:29;;;;;;;8.27;5.43;;;;;;;;;;5050700;28;20079;-64
2021/09/24 10:55:38;;;;;;;16.52;6.82;;;;;;;;;;5050337;28;20377;-65
2021/09/24 10:58:04;;;;;;;13.45;5.40;;;;;;;;;;5050513;28;20060;-64
2021/09/24 11:00:30;;;;;;;14.68;7.25;;;;;;;;;;5037371;28;20057;-65
2021/09/24 11:03:06;;;;;;;13.43;5.72;;;;;;;;;;5050310;28;20099;-65
2021/09/24 11:05:50;;;;;;;12.50;5.05;;;;;;;;;;5048919;28;20032;-66
2021/09/24 11:08:37;;;;;;;11.93;5.25;;;;;;;;;;5046662;28;20100;-66
2021/09/24 11:11:03;;;;;;;16.58;5.75;;;;;;;;;;5050470;28;20385;-65
2021/09/24 11:13:28;;;;;;;9.02;5.15;;;;;;;;;;5050273;28;20370;-65
2021/09/24 11:15:57;;;;;;;10.00;5.43;;;;;;;;;;5050483;28;20108;-65
2021/09/24 11:18:41;;;;;;;16.50;6.13;;;;;;;;;;5050205;28;20043;-66
2021/09/24 11:21:06;;;;;;;13.98;5.75;;;;;;;;;;5045906;28;20504;-65
2021/09/24 11:23:33;;;;;;;12.85;5.85;;;;;;;;;;5050294;28;20029;-67
2021/09/24 11:26:06;;;;;;;15.23;5.75;;;;;;;;;;5049623;28;20028;-67
2021/09/24 11:28:32;;;;;;;13.80;6.20;;;;;;;;;;5049894;28;20009;-66
2021/09/24 11:30:57;;;;;;;9.18;4.88;;;;;;;;;;5049948;28;20146;-66
2021/09/24 11:33:40;;;;;;;10.35;5.43;;;;;;;;;;5049048;28;20056;-67
2021/09/24 11:36:05;;;;;;;15.75;4.97;;;;;;;;;;5038817;28;20024;-67
2021/09/24 11:38:30;;;;;;;11.35;4.80;;;;;;;;;;5049196;28;20470;-67
2021/09/24 11:40:57;;;;;;;12.15;5.32;;;;;;;;;;5049807;28;20103;-63
2021/09/24 11:43:28;;;;;;;14.43;5.47;;;;;;;;;;5048868;28;20025;-66
2021/09/24 11:45:54;;;;;;;12.15;5.18;;;;;;;;;;5050233;28;20082;-66
2021/09/24 11:48:32;;;;;;;12.90;5.47;;;;;;;;;;5049377;28;20028;-67
2021/09/24 11:51:11;;;;;;;15.15;5.20;;;;;;;;;;5047999;28;20028;-65
2021/09/24 11:53:48;;;;;;;14.90;5.35;;;;;;;;;;5036359;28;20021;-66
2021/09/24 11:56:20;;;;;;;10.27;4.45;;;;;;;;;;5049411;28;20477;-66
2021/09/24 11:58:45;;;;;;;11.57;5.32;;;;;;;;;;5056654;28;20024;-67
2021/09/24 12:01:11;;;;;;;13.88;6.03;;;;;;;;;;5056009;28;20385;-66
2021/09/24 12:03:36;;;;;;;15.50;4.93;;;;;;;;;;5055945;28;20037;-66
2021/09/24 12:06:09;;;;;;;9.73;3.97;;;;;;;;;;5056626;28;20412;-67
2021/09/24 12:08:39;;;;;;;8.82;4.43;;;;;;;;;;5056172;28;20331;-64
2021/09/24 12:11:08;;;;;;;12.45;4.28;;;;;;;;;;5055950;28;20016;-65
2021/09/24 12:13:57;;;;;;;12.10;4.70;;;;;;;;;;5055430;28;20470;-65
2021/09/24 12:16:24;;;;;;;15.27;6.25;;;;;;;;;;5047053;28;20048;-64
2021/09/24 12:19:00;;;;;;;13.07;5.95;;;;;;;;;;5056264;28;20025;-66
2021/09/24 12:21:29;;;;;;;13.10;6.07;;;;;;;;;;5055296;28;20121;-63
2021/09/24 12:23:55;;;;;;;11.30;5.15;;;;;;;;;;5055691;28;20485;-66
2021/09/24 12:26:31;;;;;;;15.75;5.10;;;;;;;;;;5055767;28;20025;-65
2021/09/24 12:28:56;;;;;;;14.88;4.25;;;;;;;;;;5057164;28;20130;-66
2021/09/24 12:31:51;;;;;;;15.23;5.53;;;;;;;;;;5056257;28;20513;-63
2021/09/24 12:34:18;;;;;;;8.27;4.78;;;;;;;;;;5043474;28;20408;-67
2021/09/24 12:36:52;;;;;;;20.40;6.10;;;;;;;;;;5056045;28;20029;-67
2021/09/24 12:39:18;;;;;;;18.42;5.55;;;;;;;;;;5056731;28;20021;-64
2021/09/24 12:41:44;;;;;;;9.60;4.68;;;;;;;;;;5055217;28;20032;-66
2021/09/24 12:44:10;;;;;;;14.88;5.63;;;;;;;;;;5056296;28;20723;-67
2021/09/24 12:47:02;;;;;;;10.18;4.68;;;;;;;;;;5055495;28;20032;-66
2021/09/24 12:49:28;;;;;;;9.50;4.18;;;;;;;;;;5047647;28;20508;-66
2021/09/24 12:51:54;;;;;;;10.38;3.85;;;;;;;;;;5055139;28;20024;-66
2021/09/24 12:54:20;;;;;;;11.30;4.28;;;;;;;;;;5044992;28;20481;-66
2021/09/24 12:56:46;;;;;;;8.85;4.55;;;;;;;;;;5055286;28;20040;-67
2021/09/24 12:59:11;;;;;;;11.75;3.90;;;;;;;;;;5055705;28;20021;-66
2021/09/24 13:01:37;;;;;;;8.50;3.42;;;;;;;;;;5055826;28;20365;-67
2021/09/24 13:04:03;;;;;;;9.32;4.15;;;;;;;;;;5052186;28;20079;-67
2021/09/24 13:06:28;;;;;;;10.43;3.40;;;;;;;;;;5049658;28;20025;-66
2021/09/24 13:08:54;;;;;;;9.05;3.97;;;;;;;;;;5051125;28;20031;-67
2021/09/24 13:11:21;;;;;;;7.95;3.80;;;;;;;;;;5051371;28;20052;-65
2021/09/24 13:13:48;;;;;;;8.25;3.38;;;;;;;;;;5050234;28;20021;-67
2021/09/24 13:16:13;;;;;;;7.05;3.47;;;;;;;;;;5045211;28;20074;-65
2021/09/24 13:18:38;;;;;;;8.47;3.77;;;;;;;;;;5051429;28;20029;-66
2021/09/24 13:21:04;;;;;;;7.03;2.90;;;;;;;;;;5052654;28;20752;-66
2021/09/24 13:23:29;;;;;;;8.13;3.72;;;;;;;;;;5051254;28;20033;-66
2021/09/24 13:25:54;;;;;;;13.57;4.55;;;;;;;;;;5051730;28;20021;-67
2021/09/24 13:28:20;;;;;;;7.45;3.70;;;;;;;;;;5050866;28;20021;-64
2021/09/24 13:30:45;;;;;;;9.68;3.47;;;;;;;;;;5050242;28;20476;-66
2021/09/24 13:33:13;;;;;;;13.27;4.05;;;;;;;;;;5043900;28;20026;-67
2021/09/24 13:35:40;;;;;;;6.90;3.65;;;;;;;;;;5048534;28;20190;-68
2021/09/24 13:38:05;;;;;;;9.20;3.80;;;;;;;;;;5043010;28;20025;-67
2021/09/24 13:40:30;;;;;;;10.88;3.90;;;;;;;;;;5051274;28;20478;-67
2021/09/24 13:42:55;;;;;;;7.68;4.13;;;;;;;;;;5051835;28;20037;-69
2021/09/24 13:45:21;;;;;;;8.73;3.43;;;;;;;;;;5051269;28;20075;-67
2021/09/24 13:47:46;;;;;;;13.67;3.97;;;;;;;;;;5051926;28;20313;-68
2021/09/24 13:50:12;;;;;;;10.82;3.90;;;;;;;;;;5051832;28;20303;-64
2021/09/24 13:52:37;;;;;;;12.68;3.50;;;;;;;;;;5051860;28;20013;-65
2021/09/24 13:55:03;;;;;;;5.75;3.33;;;;;;;;;;5051929;28;20025;-64
2021/09/24 13:57:29;;;;;;;5.53;3.10;;;;;;;;;;5051374;28;20021;-66
2021/09/24 13:59:54;;;;;;;10.50;4.28;;;;;;;;;;5051588;28;20033;-64
2021/09/24 14:02:20;;;;;;;11.10;3.60;;;;;;;;;;5048196;28;20029;-65
2021/09/24 14:04:45;;;;;;;11.17;4.00;;;;;;;;;;5050791;28;20033;-65
2021/09/24 14:07:10;;;;;;;8.93;3.97;;;;;;;;;;5046348;28;20283;-65
2021/09/24 14:09:35;;;;;;;11.43;3.87;;;;;;;;;;5046628;28;20724;-65
2021/09/24 14:12:00;;;;;;;9.47;3.27;;;;;;;;;;5047917;28;20279;-67
2021/09/24 14:14:25;;;;;;;8.73;3.37;;;;;;;;;;5049638;28;20274;-66
2021/09/24 14:16:51;;;;;;;17.50;4.27;;;;;;;;;;5047111;28;20271;-66
2021/09/24 14:19:16;;;;;;;7.78;3.13;;;;;;;;;;5049927;28;20748;-67
2021/09/24 14:21:41;;;;;;;9.60;3.10;;;;;;;;;;5048203;28;20409;-66
2021/09/24 14:24:08;;;;;;;7.25;3.33;;;;;;;;;;5050013;28;20365;-67